createdAt,value
2018-01-29T00:00:48.049Z,2.93
2018-01-29T00:03:14.638Z,3.13
2018-01-29T00:05:41.227Z,3.67
2018-01-29T00:08:07.834Z,2.90
2018-01-29T00:10:34.420Z,3.20
2018-01-29T00:13:01.014Z,2.97
2018-01-29T00:15:27.650Z,3.10
2018-01-29T00:17:54.201Z,2.83
2018-01-29T00:20:20.812Z,2.87
2018-01-29T00:22:47.397Z,2.87
2018-01-29T00:25:13.999Z,3.40
2018-01-29T00:27:40.586Z,3.00
2018-01-29T00:30:07.175Z,2.60
2018-01-29T00:32:33.766Z,2.60
2018-01-29T00:35:00.355Z,3.30
2018-01-29T00:37:26.954Z,2.70
2018-01-29T00:39:53.549Z,2.53
2018-01-29T00:42:20.130Z,2.37
2018-01-29T00:44:46.723Z,2.70
2018-01-29T00:47:13.316Z,2.50
2018-01-29T00:49:39.910Z,2.30
2018-01-29T00:52:06.495Z,2.10
2018-01-29T00:54:33.136Z,2.30
2018-01-29T00:56:59.713Z,2.37
2018-01-29T00:59:26.298Z,2.30
2018-01-29T01:01:52.891Z,2.20
2018-01-29T01:04:19.480Z,2.00
2018-01-29T01:06:46.071Z,1.90
2018-01-29T01:09:12.660Z,2.00
2018-01-29T01:11:39.254Z,1.80
2018-01-29T01:14:05.842Z,1.83
2018-01-29T01:16:32.431Z,1.80
2018-01-29T01:18:59.055Z,1.70
2018-01-29T01:21:25.642Z,1.80
2018-01-29T01:23:52.239Z,1.80
2018-01-29T01:26:18.826Z,1.60
2018-01-29T01:28:45.423Z,1.40
2018-01-29T01:31:12.019Z,1.67
2018-01-29T01:33:38.623Z,1.53
2018-01-29T01:36:05.203Z,1.53
2018-01-29T01:38:31.790Z,1.40
2018-01-29T01:40:58.382Z,1.20
2018-01-29T01:43:24.980Z,1.40
2018-01-29T01:45:51.567Z,1.03
2018-01-29T01:48:18.159Z,1.20
2018-01-29T01:50:44.748Z,1.40
2018-01-29T01:53:11.334Z,1.10
2018-01-29T01:55:37.936Z,1.10
2018-01-29T01:58:05.311Z,1.27
2018-01-29T02:00:31.912Z,1.10
2018-01-29T02:02:58.496Z,0.90
2018-01-29T02:05:25.084Z,1.10
2018-01-29T02:07:51.679Z,0.90
2018-01-29T02:10:18.278Z,1.00
2018-01-29T02:12:44.880Z,1.00
2018-01-29T02:15:11.459Z,0.90
2018-01-29T02:17:38.870Z,1.00
2018-01-29T02:20:05.454Z,1.00
2018-01-29T02:22:32.045Z,1.00
2018-01-29T02:24:58.638Z,0.97
2018-01-29T02:27:25.231Z,1.00
2018-01-29T02:29:52.007Z,0.93
2018-01-29T02:32:18.608Z,1.13
2018-01-29T02:34:45.208Z,0.90
2018-01-29T02:37:11.796Z,0.80
2018-01-29T02:39:38.390Z,0.90
2018-01-29T02:42:05.002Z,1.00
2018-01-29T02:44:31.609Z,0.90
2018-01-29T02:46:58.197Z,1.10
2018-01-29T02:49:24.776Z,0.70
2018-01-29T02:51:51.367Z,1.00
2018-01-29T02:54:17.952Z,0.83
2018-01-29T02:56:44.538Z,0.80
2018-01-29T02:59:11.131Z,0.90
2018-01-29T03:01:37.718Z,1.00
2018-01-29T03:04:04.347Z,0.87
2018-01-29T03:06:30.959Z,0.73
2018-01-29T03:08:57.559Z,0.83
2018-01-29T03:11:24.143Z,0.90
2018-01-29T03:13:50.735Z,1.20
2018-01-29T03:16:17.327Z,1.30
2018-01-29T03:18:43.918Z,1.53
2018-01-29T03:21:10.516Z,1.20
2018-01-29T03:23:37.113Z,1.13
2018-01-29T03:26:03.734Z,1.23
2018-01-29T03:28:30.428Z,1.20
2018-01-29T03:30:57.004Z,1.07
2018-01-29T03:33:23.602Z,1.00
2018-01-29T03:35:50.196Z,1.00
2018-01-29T03:38:16.788Z,0.90
2018-01-29T03:40:43.387Z,1.13
2018-01-29T03:43:10.012Z,0.90
2018-01-29T03:45:36.592Z,1.07
2018-01-29T03:48:03.174Z,1.00
2018-01-29T03:50:29.774Z,0.90
2018-01-29T03:52:56.358Z,0.80
2018-01-29T03:55:22.958Z,0.73
2018-01-29T03:57:49.594Z,1.00
2018-01-29T04:00:16.185Z,0.90
2018-01-29T04:02:42.788Z,0.90
2018-01-29T04:05:09.395Z,0.87
2018-01-29T04:07:35.984Z,0.87
2018-01-29T04:10:02.574Z,0.70
2018-01-29T04:12:29.175Z,0.80
2018-01-29T04:14:55.783Z,0.70
2018-01-29T04:17:22.359Z,1.03
2018-01-29T04:19:49.404Z,0.70
2018-01-29T04:22:15.979Z,0.70
2018-01-29T04:24:42.610Z,0.73
2018-01-29T04:27:09.190Z,0.70
2018-01-29T04:29:35.786Z,0.63
2018-01-29T04:32:02.367Z,0.60
2018-01-29T04:34:28.967Z,0.80
2018-01-29T04:36:55.558Z,0.80
2018-01-29T04:39:22.159Z,0.90
2018-01-29T04:41:48.763Z,0.70
2018-01-29T04:44:16.021Z,0.60
2018-01-29T04:46:42.607Z,0.70
2018-01-29T04:49:09.198Z,1.00
2018-01-29T04:51:35.786Z,0.90
2018-01-29T04:54:02.378Z,0.60
2018-01-29T04:56:28.994Z,0.73
2018-01-29T04:58:55.607Z,0.60
2018-01-29T05:01:22.187Z,0.67
2018-01-29T05:03:48.806Z,0.80
2018-01-29T05:06:15.394Z,0.70
2018-01-29T05:08:41.987Z,0.60
2018-01-29T05:11:08.580Z,0.70
2018-01-29T05:13:35.196Z,0.70
2018-01-29T05:16:01.783Z,0.70
2018-01-29T05:18:28.394Z,0.70
2018-01-29T05:20:54.996Z,0.70
2018-01-29T05:23:21.583Z,0.70
2018-01-29T05:25:48.196Z,0.77
2018-01-29T05:28:14.771Z,0.70
2018-01-29T05:30:41.373Z,0.77
2018-01-29T05:33:07.955Z,0.80
2018-01-29T05:35:35.409Z,0.87
2018-01-29T05:38:05.695Z,0.87
2018-01-29T05:40:32.287Z,0.80
2018-01-29T05:42:58.879Z,0.97
2018-01-29T05:45:25.510Z,0.80
2018-01-29T05:47:52.121Z,0.97
2018-01-29T05:50:19.462Z,0.80
2018-01-29T05:52:46.067Z,0.83
2018-01-29T05:55:12.651Z,1.10
2018-01-29T05:57:39.247Z,0.90
2018-01-29T06:00:05.842Z,0.80
2018-01-29T06:02:32.438Z,1.03
2018-01-29T06:04:59.134Z,1.33
2018-01-29T06:07:26.659Z,1.40
2018-01-29T06:09:53.259Z,0.90
2018-01-29T06:12:19.850Z,0.80
2018-01-29T06:14:46.440Z,0.90
2018-01-29T06:17:13.051Z,0.80
2018-01-29T06:19:39.645Z,1.03
2018-01-29T06:22:06.243Z,0.80
2018-01-29T06:24:32.832Z,0.80
2018-01-29T06:26:59.423Z,0.80
2018-01-29T06:29:26.015Z,0.90
2018-01-29T06:31:52.603Z,0.80
2018-01-29T06:34:19.213Z,0.80
2018-01-29T06:36:45.847Z,0.90
2018-01-29T06:39:12.419Z,1.00
2018-01-29T06:41:39.015Z,1.20
2018-01-29T06:44:05.636Z,1.00
2018-01-29T06:46:32.327Z,1.03
2018-01-29T06:48:58.915Z,1.20
2018-01-29T06:51:25.515Z,1.20
2018-01-29T06:53:52.115Z,1.43
2018-01-29T06:56:18.711Z,1.70
2018-01-29T06:58:45.301Z,1.67
2018-01-29T07:01:11.940Z,1.50
2018-01-29T07:03:39.533Z,1.60
2018-01-29T07:06:06.123Z,1.43
2018-01-29T07:08:32.723Z,1.60
2018-01-29T07:10:59.345Z,1.60
2018-01-29T07:13:25.947Z,3.20
2018-01-29T07:15:52.531Z,1.70
2018-01-29T07:18:19.126Z,1.60
2018-01-29T07:20:47.328Z,1.27
2018-01-29T07:23:13.951Z,1.60
2018-01-29T07:25:40.534Z,1.80
2018-01-29T07:28:07.151Z,1.70
2018-01-29T07:30:33.736Z,1.80
2018-01-29T07:33:01.953Z,2.03
2018-01-29T07:35:28.583Z,2.10
2018-01-29T07:37:55.201Z,2.33
2018-01-29T07:40:24.558Z,2.10
2018-01-29T07:42:54.533Z,2.30
2018-01-29T07:45:21.120Z,2.03
2018-01-29T07:47:47.720Z,2.10
2018-01-29T07:50:14.307Z,2.30
2018-01-29T07:52:40.907Z,2.30
2018-01-29T07:55:07.507Z,2.00
2018-01-29T07:57:34.119Z,2.17
2018-01-29T08:00:00.736Z,2.53
2018-01-29T08:02:27.344Z,2.60
2018-01-29T08:04:54.420Z,2.17
2018-01-29T08:07:21.026Z,1.70
2018-01-29T08:12:14.212Z,2.50
2018-01-29T08:14:40.831Z,2.03
2018-01-29T08:17:07.423Z,2.30
2018-01-29T08:19:36.355Z,2.30
2018-01-29T08:22:02.975Z,2.20
2018-01-29T08:24:29.545Z,2.40
2018-01-29T08:26:56.149Z,2.00
2018-01-29T08:29:22.757Z,2.60
2018-01-29T08:31:50.344Z,1.80
2018-01-29T08:34:16.940Z,2.50
2018-01-29T08:36:43.538Z,2.30
2018-01-29T08:39:10.128Z,2.63
2018-01-29T08:41:36.719Z,2.40
2018-01-29T08:44:03.357Z,2.30
2018-01-29T08:46:29.939Z,1.87
2018-01-29T08:48:56.538Z,2.20
2018-01-29T08:51:23.139Z,2.17
2018-01-29T08:53:49.743Z,2.57
2018-01-29T08:56:16.339Z,2.40
2018-01-29T08:58:42.936Z,2.03
2018-01-29T09:01:09.532Z,2.37
2018-01-29T09:03:36.127Z,2.10
2018-01-29T09:06:02.811Z,2.20
2018-01-29T09:08:29.315Z,2.50
2018-01-29T09:10:55.916Z,2.13
2018-01-29T09:13:22.515Z,2.33
2018-01-29T09:15:49.115Z,2.07
2018-01-29T09:18:15.734Z,2.23
2018-01-29T09:20:42.307Z,2.50
2018-01-29T09:23:11.739Z,2.30
2018-01-29T09:25:38.341Z,2.00
2018-01-29T09:28:04.936Z,2.17
2018-01-29T09:30:31.535Z,2.00
2018-01-29T09:32:58.130Z,2.00
2018-01-29T09:35:24.726Z,2.37
2018-01-29T09:37:51.342Z,3.20
2018-01-29T09:40:17.944Z,2.30
2018-01-29T09:42:44.544Z,2.10
2018-01-29T09:45:11.151Z,3.53
2018-01-29T09:47:37.790Z,2.63
2018-01-29T09:50:04.339Z,2.40
2018-01-29T09:52:30.934Z,2.37
2018-01-29T09:54:57.538Z,2.70
2018-01-29T09:57:24.144Z,2.60
2018-01-29T09:59:50.952Z,2.23
2018-01-29T10:02:17.554Z,2.10
2018-01-29T10:04:44.144Z,2.10
2018-01-29T10:07:11.670Z,2.10
2018-01-29T10:09:38.327Z,2.10
2018-01-29T10:12:04.866Z,2.03
2018-01-29T10:14:31.503Z,2.60
2018-01-29T10:16:58.090Z,1.90
2018-01-29T10:19:24.686Z,2.10
2018-01-29T10:21:51.286Z,2.47
2018-01-29T10:24:18.004Z,2.27
2018-01-29T10:26:44.595Z,2.10
2018-01-29T10:29:11.270Z,2.00
2018-01-29T10:31:37.905Z,2.00
2018-01-29T10:34:04.546Z,2.33
2018-01-29T10:36:31.155Z,1.80
2018-01-29T10:38:57.742Z,2.00
2018-01-29T10:41:24.340Z,2.30
2018-01-29T10:43:50.931Z,1.80
2018-01-29T10:46:17.520Z,1.63
2018-01-29T10:48:44.139Z,1.97
2018-01-29T10:51:10.727Z,1.70
2018-01-29T10:53:37.335Z,1.80
2018-01-29T10:56:03.928Z,2.13
2018-01-29T10:58:30.528Z,1.97
2018-01-29T11:01:02.691Z,1.97
2018-01-29T11:03:29.280Z,2.10
2018-01-29T11:05:55.884Z,1.70
2018-01-29T11:08:22.491Z,1.70
2018-01-29T11:10:49.086Z,1.70
2018-01-29T11:13:15.685Z,1.60
2018-01-29T11:15:42.299Z,1.60
2018-01-29T11:18:08.893Z,1.47
2018-01-29T11:20:35.502Z,1.50
2018-01-29T11:23:02.100Z,1.40
2018-01-29T11:25:28.691Z,1.50
2018-01-29T11:27:55.279Z,1.50
2018-01-29T11:30:21.893Z,1.10
2018-01-29T11:32:48.483Z,1.57
2018-01-29T11:35:15.070Z,1.30
2018-01-29T11:37:41.663Z,1.20
2018-01-29T11:40:08.255Z,1.27
2018-01-29T11:42:34.856Z,1.40
2018-01-29T11:45:01.460Z,1.10
2018-01-29T11:47:28.038Z,1.33
2018-01-29T11:49:54.630Z,1.50
2018-01-29T11:52:21.228Z,1.23
2018-01-29T11:54:47.819Z,1.30
2018-01-29T11:57:14.411Z,1.20
2018-01-29T11:59:41.009Z,1.20
2018-01-29T12:02:07.605Z,1.27
2018-01-29T12:04:34.198Z,1.10
2018-01-29T12:07:00.798Z,1.40
2018-01-29T12:09:27.396Z,1.37
2018-01-29T12:11:53.994Z,1.30
2018-01-29T12:14:20.579Z,1.20
2018-01-29T12:16:47.174Z,1.30
2018-01-29T12:19:15.755Z,1.30
2018-01-29T12:21:40.403Z,1.17
2018-01-29T12:24:07.013Z,1.20
2018-01-29T12:26:33.591Z,1.60
2018-01-29T12:29:00.197Z,1.20
2018-01-29T12:31:26.783Z,1.30
2018-01-29T12:33:53.397Z,1.60
2018-01-29T12:36:19.982Z,1.60
2018-01-29T12:38:46.586Z,1.53
2018-01-29T12:41:13.234Z,1.40
2018-01-29T12:43:39.816Z,1.60
2018-01-29T12:46:06.399Z,1.17
2018-01-29T12:48:32.990Z,1.40
2018-01-29T12:50:59.585Z,1.87
2018-01-29T12:53:26.170Z,1.50
2018-01-29T12:55:52.763Z,1.40
2018-01-29T12:58:19.458Z,1.80
2018-01-29T13:00:46.039Z,1.77
2018-01-29T13:03:12.634Z,1.80
2018-01-29T13:05:39.219Z,1.60
2018-01-29T13:08:05.815Z,1.70
2018-01-29T13:10:32.426Z,1.67
2018-01-29T13:12:59.022Z,1.70
2018-01-29T13:15:25.639Z,2.00
2018-01-29T13:17:52.287Z,1.67
2018-01-29T13:20:18.878Z,1.80
2018-01-29T13:22:45.484Z,1.80
2018-01-29T13:25:12.075Z,1.60
2018-01-29T13:27:38.659Z,2.07
2018-01-29T13:30:05.286Z,1.90
2018-01-29T13:32:31.908Z,2.03
2018-01-29T13:34:58.493Z,2.23
2018-01-29T13:37:25.081Z,2.03
2018-01-29T13:39:51.675Z,2.00
2018-01-29T13:42:18.255Z,2.10
2018-01-29T13:44:44.908Z,2.20
2018-01-29T13:47:11.499Z,2.63
2018-01-29T13:49:38.139Z,2.70
2018-01-29T13:52:04.684Z,2.03
2018-01-29T13:54:31.271Z,2.03
2018-01-29T13:56:57.868Z,2.10
2018-01-29T13:59:24.454Z,2.20
2018-01-29T14:01:51.065Z,2.13
2018-01-29T14:04:17.655Z,2.70
2018-01-29T14:06:44.259Z,2.90
2018-01-29T14:09:10.870Z,2.40
2018-01-29T14:11:37.467Z,2.23
2018-01-29T14:14:04.059Z,2.43
2018-01-29T14:16:30.675Z,2.87
2018-01-29T14:18:57.272Z,2.60
2018-01-29T14:21:23.863Z,2.67
2018-01-29T14:23:50.567Z,2.57
2018-01-29T14:26:17.276Z,2.37
2018-01-29T14:28:43.887Z,2.47
2018-01-29T14:31:10.524Z,2.93
2018-01-29T14:33:37.471Z,2.23
2018-01-29T14:36:04.149Z,2.23
2018-01-29T14:38:30.751Z,2.30
2018-01-29T14:40:57.346Z,2.47
2018-01-29T14:43:23.937Z,2.70
2018-01-29T14:45:50.583Z,2.43
2018-01-29T14:48:17.170Z,1.97
2018-01-29T14:50:43.759Z,2.40
2018-01-29T14:53:10.360Z,2.70
2018-01-29T14:55:36.948Z,2.30
2018-01-29T14:58:03.549Z,2.80
2018-01-29T15:00:30.143Z,3.93
2018-01-29T15:02:56.791Z,2.40
2018-01-29T15:05:23.385Z,2.57
2018-01-29T15:07:49.983Z,2.70
2018-01-29T15:10:16.582Z,2.57
2018-01-29T15:12:43.174Z,2.93
2018-01-29T15:15:09.771Z,2.50
2018-01-29T15:17:36.361Z,2.47
2018-01-29T15:20:02.955Z,2.43
2018-01-29T15:22:29.598Z,2.30
2018-01-29T15:24:56.282Z,2.63
2018-01-29T15:27:22.932Z,2.50
2018-01-29T15:29:49.525Z,2.30
2018-01-29T15:32:16.129Z,2.20
2018-01-29T15:34:42.706Z,2.70
2018-01-29T15:37:09.307Z,1.83
2018-01-29T15:39:35.903Z,2.20
2018-01-29T15:42:02.769Z,2.10
2018-01-29T15:44:29.364Z,2.50
2018-01-29T15:46:55.946Z,2.30
2018-01-29T15:49:22.542Z,2.60
2018-01-29T15:51:49.126Z,2.07
2018-01-29T15:54:15.727Z,2.00
2018-01-29T15:56:42.339Z,2.30
2018-01-29T15:59:08.970Z,2.10
2018-01-29T16:01:35.543Z,1.87
2018-01-29T16:04:02.144Z,1.97
2018-01-29T16:06:28.738Z,2.40
2018-01-29T16:08:55.322Z,1.93
2018-01-29T16:11:21.930Z,2.33
2018-01-29T16:13:48.511Z,2.20
2018-01-29T16:16:15.121Z,2.20
2018-01-29T16:18:41.695Z,2.07
2018-01-29T16:21:08.299Z,2.83
2018-01-29T16:23:34.899Z,2.60
2018-01-29T16:26:01.488Z,2.70
2018-01-29T16:28:28.080Z,2.63
2018-01-29T16:30:54.667Z,3.20
2018-01-29T16:33:21.372Z,1.97
2018-01-29T16:35:47.941Z,2.03
2018-01-29T16:38:14.536Z,2.23
2018-01-29T16:40:41.129Z,2.60
2018-01-29T16:43:07.723Z,2.10
2018-01-29T16:45:34.307Z,2.27
2018-01-29T16:48:00.903Z,2.60
2018-01-29T16:50:27.531Z,2.27
2018-01-29T16:52:54.147Z,3.17
2018-01-29T16:55:20.743Z,2.40
2018-01-29T16:57:47.335Z,2.03
2018-01-29T17:00:13.922Z,1.97
2018-01-29T17:02:40.519Z,1.80
2018-01-29T17:05:07.120Z,2.10
2018-01-29T17:07:33.707Z,2.20
2018-01-29T17:10:00.306Z,1.80
2018-01-29T17:12:26.903Z,2.00
2018-01-29T17:14:53.507Z,1.87
2018-01-29T17:17:20.109Z,1.90
2018-01-29T17:19:46.863Z,1.67
2018-01-29T17:22:13.458Z,1.80
2018-01-29T17:24:40.047Z,1.93
2018-01-29T17:27:06.638Z,3.00
2018-01-29T17:29:33.341Z,1.83
2018-01-29T17:31:59.923Z,2.27
2018-01-29T17:34:26.523Z,2.30
2018-01-29T17:36:53.125Z,2.00
2018-01-29T17:39:19.743Z,2.27
2018-01-29T17:41:46.322Z,2.20
2018-01-29T17:44:12.932Z,2.30
2018-01-29T17:46:39.532Z,3.60
2018-01-29T17:49:06.131Z,2.20
2018-01-29T17:51:32.718Z,2.03
2018-01-29T17:53:59.634Z,2.60
2018-01-29T17:56:26.251Z,3.33
2018-01-29T17:58:52.903Z,2.37
2018-01-29T18:01:19.535Z,2.40
2018-01-29T18:03:46.829Z,2.80
2018-01-29T18:06:13.486Z,2.30
2018-01-29T18:08:41.005Z,2.60
2018-01-29T18:11:07.588Z,2.37
2018-01-29T18:13:34.183Z,2.37
2018-01-29T18:16:01.595Z,2.90
2018-01-29T18:18:28.204Z,2.90
2018-01-29T18:20:54.791Z,3.00
2018-01-29T18:23:21.439Z,2.90
2018-01-29T18:25:48.971Z,3.00
2018-01-29T18:28:16.291Z,3.20
2018-01-29T18:30:43.658Z,3.07
2018-01-29T18:33:10.251Z,3.00
2018-01-29T18:35:36.858Z,4.17
2018-01-29T18:38:03.447Z,4.20
2018-01-29T18:40:30.366Z,4.00
2018-01-29T18:42:57.664Z,3.87
2018-01-29T18:47:59.437Z,3.80
2018-01-29T18:50:26.047Z,4.47
2018-01-29T18:52:52.647Z,4.20
2018-01-29T18:55:21.227Z,5.10
2018-01-29T18:57:47.833Z,4.70
2018-01-29T19:00:14.443Z,4.60
2018-01-29T19:02:41.190Z,4.37
2018-01-29T19:05:07.902Z,5.03
2018-01-29T19:07:34.479Z,5.10
2018-01-29T19:10:01.076Z,4.93
2018-01-29T19:12:27.667Z,5.17
2018-01-29T19:14:54.266Z,4.93
2018-01-29T19:17:20.864Z,4.20
2018-01-29T19:19:47.465Z,4.60
2018-01-29T19:22:14.062Z,4.70
2018-01-29T19:24:40.675Z,4.80
2018-01-29T19:27:13.762Z,5.40
2018-01-29T19:29:40.399Z,5.40
2018-01-29T19:32:07.040Z,4.60
2018-01-29T19:34:34.440Z,4.50
2018-01-29T19:37:01.035Z,4.43
2018-01-29T19:39:27.632Z,5.00
2018-01-29T19:41:54.248Z,5.03
